createdAt,value
2023-03-01T00:00:52.935Z,8.47
2023-03-01T00:03:24.965Z,9.30
2023-03-01T00:05:56.737Z,9.07
2023-03-01T00:08:49.233Z,8.97
2023-03-01T00:11:21.242Z,9.03
2023-03-01T00:14:02.599Z,8.73
2023-03-01T00:16:37.681Z,8.97
2023-03-01T00:19:10.299Z,9.13
2023-03-01T00:21:58.352Z,8.50
2023-03-01T00:24:49.825Z,9.40
2023-03-01T00:27:21.678Z,8.87
2023-03-01T00:29:51.755Z,9.17
2023-03-01T00:32:23.567Z,9.47
2023-03-01T00:35:18.526Z,9.93
2023-03-01T00:38:12.221Z,9.77
2023-03-01T00:40:43.013Z,10.07
2023-03-01T00:43:15.048Z,9.60
2023-03-01T00:45:59.336Z,9.23
2023-03-01T00:48:28.307Z,9.90
2023-03-01T00:51:01.543Z,10.00
2023-03-01T00:53:30.594Z,10.40
2023-03-01T00:56:00.100Z,10.53
2023-03-01T00:58:32.306Z,10.27
2023-03-01T01:01:25.902Z,10.10
2023-03-01T01:04:10.392Z,9.87
2023-03-01T01:07:06.931Z,10.67
2023-03-01T01:09:42.756Z,10.60
2023-03-01T01:12:45.366Z,9.97
2023-03-01T01:15:19.636Z,10.83
2023-03-01T01:18:13.416Z,10.40
2023-03-01T01:20:45.676Z,10.83
2023-03-01T01:23:35.577Z,10.97
2023-03-01T01:26:32.082Z,11.73
2023-03-01T01:29:04.048Z,11.07
2023-03-01T01:32:04.443Z,11.13
2023-03-01T01:34:42.328Z,11.80
2023-03-01T01:37:12.821Z,11.33
2023-03-01T01:39:45.901Z,12.33
2023-03-01T01:42:37.512Z,12.10
2023-03-01T01:45:37.737Z,12.50
2023-03-01T01:48:14.641Z,12.73
2023-03-01T01:50:51.221Z,12.50
2023-03-01T01:53:49.659Z,12.93
2023-03-01T01:59:09.223Z,12.70
2023-03-01T02:01:38.589Z,12.20
2023-03-01T02:04:07.459Z,13.47
2023-03-01T02:07:14.220Z,12.87
2023-03-01T02:09:45.197Z,13.73
2023-03-01T02:12:23.558Z,13.37
2023-03-01T02:14:52.773Z,13.57
2023-03-01T02:17:32.180Z,14.60
2023-03-01T02:20:21.984Z,15.07
2023-03-01T02:23:12.789Z,14.50
2023-03-01T02:25:54.938Z,15.03
2023-03-01T02:28:35.259Z,14.97
2023-03-01T02:31:26.092Z,14.53
2023-03-01T02:34:29.501Z,14.03
2023-03-01T02:37:08.064Z,15.53
2023-03-01T02:39:44.461Z,14.80
2023-03-01T02:42:27.115Z,15.73
2023-03-01T02:44:58.207Z,15.57
2023-03-01T02:47:30.703Z,15.90
2023-03-01T02:50:04.423Z,14.90
2023-03-01T02:52:49.068Z,15.07
2023-03-01T02:55:20.304Z,15.63
2023-03-01T02:57:54.382Z,15.53
2023-03-01T03:00:33.351Z,15.70
2023-03-01T03:03:24.416Z,15.43
2023-03-01T03:06:14.306Z,15.20
2023-03-01T03:08:54.598Z,15.50
2023-03-01T03:11:45.720Z,15.40
2023-03-01T03:14:20.401Z,15.23
2023-03-01T03:17:12.947Z,15.93
2023-03-01T03:19:46.848Z,16.03
2023-03-01T03:23:16.867Z,15.70
2023-03-01T03:28:59.647Z,16.63
2023-03-01T03:31:31.037Z,15.60
2023-03-01T03:34:05.788Z,16.17
2023-03-01T03:36:39.860Z,16.53
2023-03-01T03:39:14.908Z,17.23
2023-03-01T03:41:47.336Z,18.00
2023-03-01T03:44:39.043Z,18.40
2023-03-01T03:47:29.646Z,18.00
2023-03-01T03:50:28.318Z,18.67
2023-03-01T03:53:17.887Z,19.00
2023-03-01T03:55:52.826Z,18.43
2023-03-01T03:58:27.628Z,18.00
2023-03-01T04:00:58.499Z,18.70
2023-03-01T04:03:28.569Z,19.03
2023-03-01T04:06:04.934Z,18.63
2023-03-01T04:08:40.721Z,18.93
2023-03-01T04:11:50.001Z,20.03
2023-03-01T04:14:39.406Z,18.90
2023-03-01T04:17:33.283Z,19.53
2023-03-01T04:20:08.806Z,19.83
2023-03-01T04:22:42.799Z,19.07
2023-03-01T04:25:15.040Z,19.33
2023-03-01T04:27:44.663Z,19.97
2023-03-01T04:30:26.712Z,18.83
2023-03-01T04:33:07.483Z,18.53
2023-03-01T04:35:56.669Z,19.33
2023-03-01T04:39:24.675Z,19.80
2023-03-01T04:41:54.363Z,20.53
2023-03-01T04:44:24.290Z,20.80
2023-03-01T04:47:13.652Z,20.70
2023-03-01T04:49:46.578Z,20.63
2023-03-01T04:52:27.534Z,21.00
2023-03-01T04:55:07.436Z,21.13
2023-03-01T04:57:39.562Z,21.10
2023-03-01T05:00:22.461Z,20.70
2023-03-01T05:02:55.278Z,21.13
2023-03-01T05:05:31.825Z,20.73
2023-03-01T05:08:07.245Z,21.03
2023-03-01T05:13:46.818Z,20.03
2023-03-01T05:16:17.963Z,21.20
2023-03-01T05:18:51.739Z,20.17
2023-03-01T05:21:20.137Z,20.03
2023-03-01T05:23:49.351Z,20.27
2023-03-01T05:26:42.572Z,19.97
2023-03-01T05:29:36.081Z,18.97
2023-03-01T05:32:05.810Z,18.97
2023-03-01T05:34:37.341Z,18.23
2023-03-01T05:37:06.712Z,18.93
2023-03-01T05:39:34.689Z,18.13
2023-03-01T05:42:04.320Z,17.17
2023-03-01T05:44:32.577Z,17.67
2023-03-01T05:47:00.564Z,17.13
2023-03-01T05:49:28.604Z,17.80
2023-03-01T05:51:57.121Z,16.23
2023-03-01T05:54:28.691Z,16.53
2023-03-01T05:56:57.226Z,15.70
2023-03-01T05:59:26.904Z,16.07
2023-03-01T06:01:57.368Z,16.33
2023-03-01T06:04:25.323Z,16.93
2023-03-01T06:06:56.142Z,16.53
2023-03-01T06:09:24.164Z,16.07
2023-03-01T06:11:52.438Z,16.17
2023-03-01T06:14:21.866Z,16.23
2023-03-01T06:16:51.205Z,17.90
2023-03-01T06:19:19.258Z,18.37
2023-03-01T06:21:47.518Z,18.07
2023-03-01T06:24:15.800Z,17.40
2023-03-01T06:26:43.876Z,17.33
2023-03-01T06:29:11.926Z,17.93
2023-03-01T06:31:39.849Z,17.03
2023-03-01T06:34:09.244Z,18.23
2023-03-01T06:36:37.193Z,18.17
2023-03-01T06:39:06.263Z,16.53
2023-03-01T06:41:35.258Z,18.33
2023-03-01T06:44:03.666Z,17.90
2023-03-01T06:46:32.318Z,16.90
2023-03-01T06:49:05.511Z,18.20
2023-03-01T06:51:34.923Z,17.80
2023-03-01T06:54:02.894Z,17.77
2023-03-01T06:56:31.265Z,17.53
2023-03-01T06:58:59.643Z,17.97
2023-03-01T07:01:28.122Z,16.73
2023-03-01T07:03:56.173Z,18.87
2023-03-01T07:06:25.229Z,18.20
2023-03-01T07:08:54.618Z,17.73
2023-03-01T07:11:22.800Z,17.70
2023-03-01T07:13:50.955Z,17.87
2023-03-01T07:16:19.302Z,17.27
2023-03-01T07:18:48.582Z,17.07
2023-03-01T07:21:17.894Z,16.23
2023-03-01T07:23:45.963Z,16.43
2023-03-01T07:26:39.083Z,16.30
2023-03-01T07:29:09.750Z,17.23
2023-03-01T07:31:38.348Z,17.23
2023-03-01T07:34:06.480Z,17.40
2023-03-01T07:36:34.466Z,16.57
2023-03-01T07:39:04.088Z,17.27
2023-03-01T07:41:32.484Z,17.97
2023-03-01T07:44:01.970Z,18.70
2023-03-01T07:46:30.355Z,17.03
2023-03-01T07:48:59.284Z,18.50
2023-03-01T07:51:27.251Z,18.70
2023-03-01T07:53:55.292Z,18.60
2023-03-01T07:56:23.228Z,18.13
2023-03-01T07:58:51.437Z,18.20
2023-03-01T08:01:23.029Z,18.47
2023-03-01T08:03:51.018Z,18.33
2023-03-01T08:06:20.334Z,18.63
2023-03-01T08:08:48.597Z,16.50
2023-03-01T08:11:17.271Z,18.37
2023-03-01T08:13:45.936Z,18.17
2023-03-01T08:16:15.803Z,17.80
2023-03-01T08:18:45.441Z,16.90
2023-03-01T08:21:15.608Z,16.67
2023-03-01T08:23:44.589Z,18.60
2023-03-01T08:26:14.892Z,16.93
2023-03-01T08:28:43.971Z,18.67
2023-03-01T08:31:20.921Z,18.07
2023-03-01T08:33:52.586Z,17.17
2023-03-01T08:36:22.180Z,18.07
2023-03-01T08:38:50.514Z,17.50
2023-03-01T08:41:19.108Z,17.40
2023-03-01T08:43:47.698Z,16.63
2023-03-01T08:46:16.319Z,15.33
2023-03-01T08:48:44.560Z,15.37
2023-03-01T08:51:15.916Z,15.50
2023-03-01T08:53:44.198Z,13.60
2023-03-01T08:56:12.858Z,13.40
2023-03-01T08:58:41.781Z,12.90
2023-03-01T09:01:10.548Z,12.37
2023-03-01T09:03:39.003Z,11.90
2023-03-01T09:06:08.826Z,12.70
2023-03-01T09:08:39.976Z,12.80
2023-03-01T09:11:10.384Z,12.47
2023-03-01T09:13:39.242Z,11.80
2023-03-01T09:16:09.382Z,12.13
2023-03-01T09:18:38.139Z,10.47
2023-03-01T09:21:08.177Z,10.00
2023-03-01T09:23:40.326Z,9.67
2023-03-01T09:26:09.863Z,9.80
2023-03-01T09:28:38.290Z,8.70
2023-03-01T09:31:07.322Z,7.40
2023-03-01T09:33:36.201Z,7.63
2023-03-01T09:36:06.995Z,7.20
2023-03-01T09:38:36.104Z,7.47
2023-03-01T09:41:12.881Z,5.87
2023-03-01T09:43:47.760Z,6.33
2023-03-01T09:46:18.094Z,5.70
2023-03-01T09:48:52.639Z,5.63
2023-03-01T09:51:31.518Z,5.83
2023-03-01T09:54:02.033Z,5.40
2023-03-01T09:56:36.723Z,5.67
2023-03-01T09:59:17.621Z,5.40
2023-03-01T10:01:53.379Z,5.93
2023-03-01T10:04:30.948Z,5.07
2023-03-01T10:07:14.887Z,5.97
2023-03-01T10:09:46.080Z,4.40
2023-03-01T10:12:18.992Z,6.00
2023-03-01T10:14:54.611Z,5.97
2023-03-01T10:17:29.922Z,5.53
2023-03-01T10:20:08.273Z,5.53
2023-03-01T10:22:36.840Z,5.20
2023-03-01T10:25:06.237Z,5.10
2023-03-01T10:27:43.820Z,5.60
2023-03-01T10:30:18.596Z,5.23
2023-03-01T10:32:47.017Z,6.23
2023-03-01T10:35:19.487Z,5.67
2023-03-01T10:38:04.937Z,5.37
2023-03-01T10:40:34.050Z,6.97
2023-03-01T10:43:06.908Z,6.63
2023-03-01T10:45:37.937Z,6.73
2023-03-01T10:48:12.557Z,6.17
2023-03-01T10:50:42.451Z,6.70
2023-03-01T10:53:27.515Z,6.10
2023-03-01T10:56:01.834Z,5.33
2023-03-01T10:58:32.583Z,6.37
2023-03-01T11:01:02.373Z,5.10
2023-03-01T11:03:32.920Z,5.90
2023-03-01T11:06:04.809Z,5.50
2023-03-01T11:08:36.995Z,5.00
2023-03-01T11:11:28.981Z,6.87
2023-03-01T11:14:00.432Z,6.10
2023-03-01T11:16:32.919Z,5.50
2023-03-01T11:19:06.057Z,5.43
2023-03-01T11:21:36.685Z,5.80
2023-03-01T11:24:07.800Z,5.77
2023-03-01T11:26:40.787Z,5.23
2023-03-01T11:29:28.559Z,4.83
2023-03-01T11:32:04.433Z,5.77
2023-03-01T11:34:44.326Z,5.73
2023-03-01T11:37:25.935Z,6.23
2023-03-01T11:40:00.252Z,5.30
2023-03-01T11:42:42.467Z,6.03
2023-03-01T11:45:14.067Z,6.37
2023-03-01T11:48:04.774Z,5.97
2023-03-01T11:50:42.248Z,6.53
2023-03-01T11:53:37.108Z,7.00
2023-03-01T11:56:14.310Z,7.90
2023-03-01T11:59:09.337Z,8.23
2023-03-01T12:01:54.344Z,9.20
2023-03-01T12:04:51.676Z,7.30
2023-03-01T12:07:27.262Z,7.30
2023-03-01T12:10:15.636Z,9.43
2023-03-01T12:13:07.608Z,9.70
2023-03-01T12:15:50.055Z,10.20
2023-03-01T12:18:49.915Z,9.23
2023-03-01T12:21:30.095Z,10.33
2023-03-01T12:24:22.912Z,10.37
2023-03-01T12:27:00.510Z,10.20
2023-03-01T12:29:36.586Z,9.77
2023-03-01T12:32:25.080Z,9.40
2023-03-01T12:35:24.851Z,8.80
2023-03-01T12:38:04.079Z,9.13
2023-03-01T12:41:05.401Z,8.57
2023-03-01T12:43:45.064Z,8.33
2023-03-01T12:46:22.578Z,9.20
2023-03-01T12:49:03.731Z,8.90
2023-03-01T12:51:36.733Z,8.53
2023-03-01T12:54:13.560Z,10.27
2023-03-01T12:56:41.969Z,10.23
2023-03-01T12:59:17.977Z,10.43
2023-03-01T13:01:55.333Z,9.50
2023-03-01T13:04:51.311Z,10.00
2023-03-01T13:07:29.629Z,9.00
2023-03-01T13:10:08.327Z,8.83
2023-03-01T13:12:47.961Z,9.80
2023-03-01T13:15:35.872Z,10.60
2023-03-01T13:18:06.840Z,9.47
2023-03-01T13:20:47.445Z,8.07
2023-03-01T13:23:29.123Z,8.67
2023-03-01T13:26:07.371Z,9.70
2023-03-01T13:28:43.013Z,10.27
2023-03-01T13:31:12.536Z,10.07
2023-03-01T13:33:47.559Z,10.07
2023-03-01T13:36:50.335Z,10.10
2023-03-01T13:39:40.445Z,10.00
2023-03-01T13:42:40.751Z,8.20
2023-03-01T13:45:26.612Z,7.10
2023-03-01T13:48:03.714Z,5.40
2023-03-01T13:50:38.196Z,5.40
2023-03-01T13:53:10.083Z,5.33
2023-03-01T13:55:44.779Z,5.70
2023-03-01T13:58:22.082Z,5.30
2023-03-01T14:00:56.911Z,5.37
2023-03-01T14:03:25.227Z,5.87
2023-03-01T14:06:14.874Z,5.53
2023-03-01T14:08:44.591Z,5.37
2023-03-01T14:11:41.744Z,5.47
2023-03-01T14:14:34.389Z,5.03
2023-03-01T14:17:15.239Z,4.83
2023-03-01T14:19:45.876Z,5.27
2023-03-01T14:22:26.240Z,5.13
2023-03-01T14:24:58.344Z,4.80
2023-03-01T14:27:32.124Z,5.20
2023-03-01T14:30:02.079Z,5.10
2023-03-01T14:32:32.758Z,4.73
2023-03-01T14:35:02.553Z,4.77
2023-03-01T14:37:32.908Z,4.90
2023-03-01T14:40:03.567Z,4.70
2023-03-01T14:42:37.201Z,5.00
2023-03-01T14:45:16.858Z,5.13
2023-03-01T14:47:47.636Z,4.73
2023-03-01T14:50:25.629Z,4.80
2023-03-01T14:52:58.078Z,4.53
2023-03-01T14:55:31.542Z,4.90
2023-03-01T14:58:03.502Z,5.70
2023-03-01T15:00:33.675Z,5.20
2023-03-01T15:03:10.865Z,5.23
2023-03-01T15:05:39.785Z,6.07
2023-03-01T15:08:08.239Z,6.27
2023-03-01T15:10:40.616Z,6.30
2023-03-01T15:13:23.987Z,6.03
2023-03-01T15:15:53.414Z,5.57
2023-03-01T15:18:24.726Z,5.80
2023-03-01T15:20:53.962Z,5.00
2023-03-01T15:23:28.164Z,5.20
2023-03-01T15:25:58.439Z,5.00
2023-03-01T15:28:30.302Z,5.13
2023-03-01T15:31:02.182Z,5.00
2023-03-01T15:33:36.176Z,4.93
2023-03-01T15:36:26.197Z,5.10
2023-03-01T15:38:56.589Z,4.73
2023-03-01T15:41:26.772Z,4.87
2023-03-01T15:43:57.747Z,4.83
2023-03-01T15:46:30.449Z,5.10
2023-03-01T15:49:01.212Z,5.17
2023-03-01T15:51:35.437Z,5.00
2023-03-01T15:54:07.577Z,5.07
2023-03-01T15:56:35.841Z,5.10
2023-03-01T15:59:05.769Z,5.03
2023-03-01T16:01:35.785Z,4.83
2023-03-01T16:04:03.849Z,5.27
2023-03-01T16:06:32.344Z,4.47
2023-03-01T16:09:00.825Z,5.70
2023-03-01T16:11:29.154Z,5.00
2023-03-01T16:13:57.360Z,5.40
2023-03-01T16:16:26.955Z,5.77
2023-03-01T16:18:55.919Z,5.83
2023-03-01T16:21:25.968Z,5.40
2023-03-01T16:23:54.710Z,4.83
2023-03-01T16:26:22.804Z,5.20
2023-03-01T16:28:50.856Z,5.07
2023-03-01T16:31:22.906Z,5.70
2023-03-01T16:33:54.857Z,5.80
2023-03-01T16:36:24.660Z,5.57
2023-03-01T16:38:53.244Z,5.40
2023-03-01T16:41:23.844Z,5.67
2023-03-01T16:43:53.061Z,5.87
2023-03-01T16:46:22.717Z,6.03
2023-03-01T16:48:52.707Z,5.80
2023-03-01T16:51:21.909Z,6.03
2023-03-01T16:53:52.461Z,6.33
2023-03-01T16:56:21.067Z,5.53
2023-03-01T16:58:49.295Z,6.40
2023-03-01T17:01:18.949Z,6.57
2023-03-01T17:03:49.795Z,6.13
2023-03-01T17:06:21.439Z,5.97
2023-03-01T17:08:49.708Z,5.93
2023-03-01T17:11:19.870Z,6.43
2023-03-01T17:13:49.057Z,6.30
2023-03-01T17:16:19.551Z,5.67
2023-03-01T17:18:48.109Z,5.60
2023-03-01T17:21:16.458Z,5.90
2023-03-01T17:23:47.907Z,5.90
2023-03-01T17:26:15.984Z,6.03
2023-03-01T17:28:44.763Z,5.97
2023-03-01T17:31:13.667Z,6.17
2023-03-01T17:33:41.731Z,7.00
2023-03-01T17:36:09.919Z,6.30
2023-03-01T17:38:38.389Z,6.10
2023-03-01T17:41:07.916Z,6.17
2023-03-01T17:43:35.980Z,5.87
2023-03-01T17:46:04.320Z,5.83
2023-03-01T17:48:32.413Z,5.77
2023-03-01T17:51:00.582Z,6.63
2023-03-01T17:53:28.666Z,5.67
2023-03-01T17:56:02.085Z,6.47
2023-03-01T17:58:32.122Z,6.80
2023-03-01T18:01:09.641Z,6.03
2023-03-01T18:03:38.237Z,6.37
2023-03-01T18:06:12.531Z,5.73
2023-03-01T18:08:40.651Z,6.20
2023-03-01T18:11:09.819Z,5.67
2023-03-01T18:13:39.821Z,6.03
2023-03-01T18:16:09.311Z,6.10
2023-03-01T18:18:38.077Z,6.20
2023-03-01T18:21:07.304Z,5.97
2023-03-01T18:23:36.816Z,6.30
2023-03-01T18:26:07.871Z,6.70
2023-03-01T18:28:36.542Z,6.47
2023-03-01T18:31:08.757Z,6.07
2023-03-01T18:33:37.174Z,6.37
2023-03-01T18:36:06.307Z,6.20
2023-03-01T18:38:34.548Z,7.70
2023-03-01T18:41:02.790Z,7.03
2023-03-01T18:43:32.804Z,6.87
2023-03-01T18:46:01.684Z,7.23
2023-03-01T18:48:31.432Z,7.00
2023-03-01T18:50:59.638Z,7.40
2023-03-01T18:53:27.784Z,7.10
2023-03-01T18:56:01.444Z,6.43
2023-03-01T18:58:29.567Z,6.33
2023-03-01T19:00:57.629Z,7.17
2023-03-01T19:03:25.750Z,6.67
2023-03-01T19:05:55.557Z,6.87
2023-03-01T19:08:23.621Z,7.57
2023-03-01T19:10:57.047Z,7.53
2023-03-01T19:13:26.133Z,7.80
2023-03-01T19:15:54.914Z,8.60
2023-03-01T19:18:23.018Z,7.60
2023-03-01T19:21:03.971Z,7.70
2023-03-01T19:23:37.022Z,7.63
2023-03-01T19:26:36.914Z,7.27
2023-03-01T19:29:28.830Z,7.90
2023-03-01T19:31:58.479Z,7.47
2023-03-01T19:34:29.911Z,7.60
2023-03-01T19:36:59.296Z,7.10
2023-03-01T19:39:37.112Z,8.33
2023-03-01T19:42:06.117Z,8.00
2023-03-01T19:44:43.322Z,7.20
2023-03-01T19:47:31.587Z,7.67
2023-03-01T19:50:00.200Z,7.57
2023-03-01T19:52:31.065Z,8.03
2023-03-01T19:55:11.053Z,7.37
2023-03-01T19:57:39.648Z,6.93
2023-03-01T20:00:11.289Z,7.47
2023-03-01T20:02:39.841Z,7.57
2023-03-01T20:05:10.392Z,8.10
2023-03-01T20:07:39.773Z,7.90
2023-03-01T20:10:13.695Z,7.47
2023-03-01T20:12:43.431Z,7.87
2023-03-01T20:15:36.106Z,8.00
2023-03-01T20:18:11.481Z,8.30
2023-03-01T20:20:41.313Z,7.70
2023-03-01T20:23:10.921Z,6.87
2023-03-01T20:25:44.173Z,7.63
2023-03-01T20:28:14.056Z,7.43
2023-03-01T20:30:42.844Z,7.03
2023-03-01T20:33:12.122Z,7.57
2023-03-01T20:35:51.322Z,7.40
2023-03-01T20:38:20.690Z,8.00
2023-03-01T20:40:51.997Z,7.50
2023-03-01T20:43:20.530Z,7.07
2023-03-01T20:45:48.766Z,7.03
2023-03-01T20:48:18.241Z,7.53
2023-03-01T20:50:46.703Z,8.03
2023-03-01T20:53:15.630Z,8.40
2023-03-01T20:56:08.092Z,8.03
2023-03-01T20:58:40.302Z,6.73
2023-03-01T21:01:12.264Z,7.50
2023-03-01T21:03:47.879Z,6.83
2023-03-01T21:06:16.600Z,7.20
2023-03-01T21:08:44.820Z,6.60
2023-03-01T21:11:18.638Z,7.23
2023-03-01T21:13:50.001Z,7.93
2023-03-01T21:16:19.986Z,7.60
2023-03-01T21:18:48.843Z,6.80
2023-03-01T21:21:40.236Z,7.63
2023-03-01T21:24:36.089Z,7.93
2023-03-01T21:27:09.127Z,8.10
2023-03-01T21:29:43.143Z,8.63
2023-03-01T21:32:12.647Z,7.77
2023-03-01T21:34:43.444Z,8.83
2023-03-01T21:37:15.123Z,8.40
2023-03-01T21:39:44.338Z,8.53
2023-03-01T21:42:13.111Z,8.70
2023-03-01T21:44:45.625Z,9.47
2023-03-01T21:47:15.292Z,9.87
2023-03-01T21:49:46.210Z,10.17
2023-03-01T21:52:17.577Z,9.77
2023-03-01T21:54:55.485Z,9.50
2023-03-01T21:57:30.150Z,9.57
2023-03-01T22:03:01.940Z,10.13
2023-03-01T22:05:33.982Z,10.17
2023-03-01T22:08:07.117Z,11.33
2023-03-01T22:10:39.448Z,9.80
2023-03-01T22:13:29.988Z,9.97
2023-03-01T22:16:04.485Z,10.03
2023-03-01T22:18:35.038Z,9.80
2023-03-01T22:21:09.311Z,9.53
2023-03-01T22:23:38.965Z,9.83
2023-03-01T22:26:08.557Z,9.23
2023-03-01T22:28:45.657Z,8.90
2023-03-01T22:31:14.147Z,9.90
2023-03-01T22:34:04.918Z,8.67
2023-03-01T22:36:37.039Z,8.97
2023-03-01T22:39:07.064Z,9.67
2023-03-01T22:41:41.526Z,10.57
2023-03-01T22:44:14.338Z,9.17
2023-03-01T22:46:45.889Z,9.50
2023-03-01T22:49:18.665Z,9.90
2023-03-01T22:52:09.817Z,9.43
2023-03-01T22:54:45.813Z,9.83
2023-03-01T22:57:14.723Z,9.97
2023-03-01T22:59:50.241Z,9.37
2023-03-01T23:02:23.825Z,10.67
2023-03-01T23:04:59.553Z,9.43
2023-03-01T23:07:31.867Z,10.23
2023-03-01T23:10:06.704Z,9.30
2023-03-01T23:12:35.311Z,9.80
2023-03-01T23:15:24.140Z,9.77
2023-03-01T23:17:52.897Z,10.93
2023-03-01T23:20:23.156Z,10.60
2023-03-01T23:22:51.812Z,8.47
2023-03-01T23:28:06.951Z,10.53
2023-03-01T23:30:38.162Z,10.17
2023-03-01T23:33:10.727Z,10.53
2023-03-01T23:35:41.510Z,11.43
2023-03-01T23:38:14.888Z,11.17
2023-03-01T23:40:46.272Z,11.40
2023-03-01T23:43:18.039Z,11.00
2023-03-01T23:45:51.957Z,11.20
2023-03-01T23:48:24.555Z,11.47
2023-03-01T23:51:15.433Z,11.53
2023-03-01T23:53:54.899Z,12.17
2023-03-01T23:56:27.345Z,12.30
2023-03-01T23:59:05.249Z,13.30
